createdAt,value
2018-02-20T00:00:37.105Z,50.90
2018-02-20T00:01:37.063Z,54.10
2018-02-20T00:02:37.024Z,61.20
2018-02-20T00:03:36.981Z,54.60
2018-02-20T00:04:36.940Z,53.90
2018-02-20T00:05:36.916Z,58.10
2018-02-20T00:06:36.861Z,61.30
2018-02-20T00:07:36.833Z,61.10
2018-02-20T00:08:36.784Z,65.40
2018-02-20T00:09:36.737Z,60.50
2018-02-20T00:10:36.696Z,62.70
2018-02-20T00:11:36.657Z,63.10
2018-02-20T00:12:36.619Z,60.80
2018-02-20T00:13:36.574Z,57.30
2018-02-20T00:14:36.532Z,56.00
2018-02-20T00:15:36.497Z,61.10
2018-02-20T00:16:36.451Z,57.30
2018-02-20T00:17:36.410Z,60.80
2018-02-20T00:18:36.373Z,65.90
2018-02-20T00:19:36.335Z,60.20
2018-02-20T00:20:36.297Z,59.40
2018-02-20T00:21:36.252Z,59.60
2018-02-20T00:22:36.204Z,62.40
2018-02-20T00:23:36.165Z,58.00
2018-02-20T00:24:36.126Z,60.10
2018-02-20T00:25:36.101Z,68.10
2018-02-20T00:26:36.044Z,60.10
2018-02-20T00:27:36.004Z,66.30
2018-02-20T00:28:35.959Z,59.10
2018-02-20T00:29:35.952Z,62.80
2018-02-20T00:30:35.880Z,67.00
2018-02-20T00:31:35.885Z,59.50
2018-02-20T00:32:35.801Z,60.70
2018-02-20T00:33:35.768Z,62.40
2018-02-20T00:34:35.730Z,58.60
2018-02-20T00:35:35.672Z,60.20
2018-02-20T00:36:35.636Z,56.00
2018-02-20T00:37:35.591Z,56.10
2018-02-20T00:38:35.555Z,63.70
2018-02-20T00:39:35.508Z,65.20
2018-02-20T00:40:35.468Z,66.20
2018-02-20T00:41:35.430Z,61.00
2018-02-20T00:42:35.393Z,62.10
2018-02-20T00:43:35.345Z,60.80
2018-02-20T00:44:35.303Z,63.40
2018-02-20T00:45:35.263Z,58.60
2018-02-20T00:46:35.220Z,66.30
2018-02-20T00:47:35.182Z,65.20
2018-02-20T00:48:35.142Z,68.80
2018-02-20T00:49:35.097Z,65.60
2018-02-20T00:50:35.056Z,65.60
2018-02-20T00:51:35.021Z,65.90
2018-02-20T00:52:34.972Z,67.10
2018-02-20T00:53:34.932Z,64.70
2018-02-20T00:54:34.891Z,69.00
2018-02-20T00:55:34.864Z,71.60
2018-02-20T00:56:34.808Z,63.40
2018-02-20T00:57:34.767Z,70.00
2018-02-20T00:58:34.754Z,70.90
2018-02-20T00:59:34.686Z,63.20
2018-02-20T01:00:34.644Z,67.60
2018-02-20T01:01:34.601Z,71.90
2018-02-20T01:02:34.590Z,70.60
2018-02-20T01:03:34.519Z,65.40
2018-02-20T01:04:34.476Z,68.80
2018-02-20T01:05:34.434Z,65.70
2018-02-20T01:06:34.397Z,67.70
2018-02-20T01:07:34.361Z,71.20
2018-02-20T01:08:34.340Z,68.80
2018-02-20T01:09:34.268Z,70.00
2018-02-20T01:10:34.242Z,74.90
2018-02-20T01:11:34.222Z,70.30
2018-02-20T01:12:34.149Z,70.50
2018-02-20T01:13:34.134Z,67.40
2018-02-20T01:14:34.063Z,75.00
2018-02-20T01:15:34.023Z,73.00
2018-02-20T01:16:33.977Z,76.20
2018-02-20T01:17:33.939Z,72.60
2018-02-20T01:18:33.902Z,78.60
2018-02-20T01:19:33.858Z,73.50
2018-02-20T01:20:33.814Z,75.30
2018-02-20T01:21:33.771Z,75.20
2018-02-20T01:22:33.729Z,74.80
2018-02-20T01:23:33.695Z,82.30
2018-02-20T01:24:33.644Z,71.30
2018-02-20T01:25:33.607Z,79.30
2018-02-20T01:26:33.568Z,83.90
2018-02-20T01:27:33.525Z,79.90
2018-02-20T01:28:33.477Z,78.90
2018-02-20T01:29:33.464Z,78.70
2018-02-20T01:30:33.409Z,84.70
2018-02-20T01:31:33.353Z,81.90
2018-02-20T01:32:33.311Z,85.30
2018-02-20T01:33:33.267Z,83.20
2018-02-20T01:34:33.234Z,84.70
2018-02-20T01:35:33.188Z,81.60
2018-02-20T01:36:33.144Z,83.60
2018-02-20T01:37:33.104Z,87.30
2018-02-20T01:38:33.062Z,86.70
2018-02-20T01:39:33.019Z,90.00
2018-02-20T01:40:33.022Z,86.50
2018-02-20T01:41:32.938Z,80.10
2018-02-20T01:42:32.893Z,93.90
2018-02-20T01:43:32.855Z,92.00
2018-02-20T01:44:32.810Z,93.00
2018-02-20T01:45:32.767Z,89.20
2018-02-20T01:46:32.728Z,82.60
2018-02-20T01:47:32.682Z,89.60
2018-02-20T01:48:32.654Z,90.00
2018-02-20T01:49:32.601Z,86.70
2018-02-20T01:50:32.561Z,89.30
2018-02-20T01:51:32.529Z,92.40
2018-02-20T01:52:32.471Z,85.50
2018-02-20T01:53:32.431Z,94.20
2018-02-20T01:54:32.396Z,90.60
2018-02-20T01:55:32.351Z,82.80
2018-02-20T01:56:32.306Z,86.20
2018-02-20T01:57:32.263Z,87.90
2018-02-20T01:58:32.231Z,93.00
2018-02-20T01:59:32.183Z,86.40
2018-02-20T02:00:32.135Z,88.70
2018-02-20T02:01:32.094Z,99.50
2018-02-20T02:02:32.057Z,96.70
2018-02-20T02:03:32.020Z,86.50
2018-02-20T02:04:31.968Z,94.50
2018-02-20T02:05:31.931Z,93.40
2018-02-20T02:06:31.887Z,97.80
2018-02-20T02:07:31.844Z,95.60
2018-02-20T02:08:31.798Z,102.60
2018-02-20T02:09:31.783Z,98.30
2018-02-20T02:10:31.714Z,97.50
2018-02-20T02:11:31.672Z,94.70
2018-02-20T02:12:31.630Z,94.70
2018-02-20T02:13:31.588Z,93.00
2018-02-20T02:14:31.549Z,99.80
2018-02-20T02:15:31.514Z,90.90
2018-02-20T02:16:31.467Z,102.60
2018-02-20T02:17:31.421Z,90.40
2018-02-20T02:18:31.381Z,86.90
2018-02-20T02:19:31.336Z,94.50
2018-02-20T02:20:31.295Z,96.00
2018-02-20T02:21:31.282Z,92.70
2018-02-20T02:22:31.217Z,97.40
2018-02-20T02:23:31.170Z,94.10
2018-02-20T02:24:31.124Z,99.80
2018-02-20T02:25:31.079Z,98.50
2018-02-20T02:26:31.037Z,97.80
2018-02-20T02:27:31.000Z,96.40
2018-02-20T02:28:30.955Z,99.70
2018-02-20T02:29:30.916Z,92.10
2018-02-20T02:30:30.882Z,97.60
2018-02-20T02:31:30.835Z,98.90
2018-02-20T02:32:30.782Z,99.30
2018-02-20T02:33:30.745Z,107.00
2018-02-20T02:34:30.701Z,105.00
2018-02-20T02:35:30.659Z,105.00
2018-02-20T02:36:31.296Z,108.30
2018-02-20T02:37:30.588Z,99.90
2018-02-20T02:38:30.532Z,117.70
2018-02-20T02:39:30.498Z,111.40
2018-02-20T02:40:30.447Z,115.20
2018-02-20T02:41:30.411Z,120.50
2018-02-20T02:42:30.369Z,113.90
2018-02-20T02:43:30.324Z,117.10
2018-02-20T02:44:30.280Z,104.90
2018-02-20T02:45:30.239Z,102.10
2018-02-20T02:46:30.200Z,105.80
2018-02-20T02:47:30.162Z,106.70
2018-02-20T02:48:30.110Z,103.00
2018-02-20T02:49:30.065Z,102.20
2018-02-20T02:50:30.022Z,97.40
2018-02-20T02:51:29.978Z,101.30
2018-02-20T02:52:29.947Z,103.70
2018-02-20T02:53:29.894Z,98.60
2018-02-20T02:54:29.857Z,104.40
2018-02-20T02:55:29.814Z,100.30
2018-02-20T02:56:29.770Z,108.00
2018-02-20T02:57:29.734Z,108.50
2018-02-20T02:58:29.687Z,104.90
2018-02-20T02:59:29.642Z,112.80
2018-02-20T03:00:29.604Z,112.80
2018-02-20T03:01:29.559Z,98.20
2018-02-20T03:02:29.515Z,103.20
2018-02-20T03:03:29.474Z,110.70
2018-02-20T03:04:29.436Z,114.90
2018-02-20T03:05:29.389Z,113.70
2018-02-20T03:06:29.348Z,114.10
2018-02-20T03:07:29.304Z,113.10
2018-02-20T03:08:29.261Z,117.00
2018-02-20T03:09:29.216Z,111.70
2018-02-20T03:10:29.176Z,108.50
2018-02-20T03:11:29.136Z,104.60
2018-02-20T03:12:29.128Z,109.80
2018-02-20T03:13:29.048Z,112.60
2018-02-20T03:14:29.010Z,104.00
2018-02-20T03:15:28.988Z,108.20
2018-02-20T03:16:28.950Z,110.80
2018-02-20T03:17:28.878Z,106.80
2018-02-20T03:18:28.839Z,108.90
2018-02-20T03:19:28.797Z,97.90
2018-02-20T03:20:28.752Z,93.60
2018-02-20T03:21:28.711Z,90.20
2018-02-20T03:22:28.674Z,90.40
2018-02-20T03:23:28.625Z,90.10
2018-02-20T03:24:28.589Z,88.50
2018-02-20T03:25:28.541Z,85.40
2018-02-20T03:26:28.497Z,82.20
2018-02-20T03:27:28.458Z,95.60
2018-02-20T03:28:28.414Z,102.90
2018-02-20T03:29:28.368Z,105.40
2018-02-20T03:30:28.337Z,95.40
2018-02-20T03:31:28.285Z,98.80
2018-02-20T03:32:28.245Z,99.40
2018-02-20T03:33:28.201Z,99.60
2018-02-20T03:34:28.169Z,106.60
2018-02-20T03:35:28.116Z,97.00
2018-02-20T03:36:28.073Z,98.70
2018-02-20T03:37:28.029Z,93.40
2018-02-20T03:38:27.993Z,97.70
2018-02-20T03:39:27.944Z,87.10
2018-02-20T03:40:27.910Z,88.40
2018-02-20T03:41:27.858Z,92.50
2018-02-20T03:42:27.851Z,97.30
2018-02-20T03:43:27.784Z,96.30
2018-02-20T03:44:27.754Z,100.30
2018-02-20T03:45:27.694Z,104.80
2018-02-20T03:46:27.647Z,110.20
2018-02-20T03:47:27.608Z,103.10
2018-02-20T03:48:27.564Z,103.20
2018-02-20T03:49:27.529Z,103.90
2018-02-20T03:50:27.478Z,105.20
2018-02-20T03:51:27.434Z,97.20
2018-02-20T03:52:27.397Z,107.50
2018-02-20T03:53:27.364Z,100.60
2018-02-20T03:54:27.308Z,105.20
2018-02-20T03:55:27.268Z,104.80
2018-02-20T03:56:27.237Z,99.50
2018-02-20T03:57:27.184Z,99.00
2018-02-20T03:58:27.143Z,99.50
2018-02-20T03:59:27.095Z,99.60
2018-02-20T04:00:27.089Z,99.50
2018-02-20T04:01:27.063Z,100.40
2018-02-20T04:02:26.997Z,103.40
2018-02-20T04:03:26.928Z,112.70
2018-02-20T04:04:26.881Z,104.30
2018-02-20T04:05:26.842Z,111.70
2018-02-20T04:06:26.814Z,102.50
2018-02-20T04:07:26.755Z,105.60
2018-02-20T04:08:26.717Z,106.20
2018-02-20T04:09:26.682Z,110.10
2018-02-20T04:10:26.651Z,109.20
2018-02-20T04:11:26.587Z,96.70
2018-02-20T04:12:26.543Z,100.20
2018-02-20T04:13:26.501Z,91.40
2018-02-20T04:14:26.457Z,101.70
2018-02-20T04:15:26.420Z,95.20
2018-02-20T04:16:26.370Z,92.40
2018-02-20T04:17:26.330Z,91.50
2018-02-20T04:18:26.285Z,92.00
2018-02-20T04:19:26.245Z,87.10
2018-02-20T04:20:26.203Z,98.50
2018-02-20T04:21:26.158Z,86.20
2018-02-20T04:22:26.149Z,82.00
2018-02-20T04:23:26.071Z,84.40
2018-02-20T04:24:26.032Z,94.40
2018-02-20T04:25:25.991Z,96.60
2018-02-20T04:26:25.955Z,94.40
2018-02-20T04:27:25.906Z,94.70
2018-02-20T04:28:25.874Z,103.90
2018-02-20T04:29:25.827Z,105.10
2018-02-20T04:30:25.777Z,100.60
2018-02-20T04:31:25.769Z,98.10
2018-02-20T04:32:25.688Z,98.10
2018-02-20T04:33:25.648Z,97.50
2018-02-20T04:34:25.607Z,99.60
2018-02-20T04:35:25.562Z,97.60
2018-02-20T04:36:25.518Z,93.40
2018-02-20T04:37:25.475Z,93.40
2018-02-20T04:38:25.433Z,98.60
2018-02-20T04:39:25.389Z,102.50
2018-02-20T04:40:25.349Z,101.20
2018-02-20T04:41:25.304Z,107.70
2018-02-20T04:42:25.262Z,102.70
2018-02-20T04:43:25.222Z,104.80
2018-02-20T04:44:25.179Z,105.50
2018-02-20T04:45:25.133Z,105.30
2018-02-20T04:46:25.103Z,97.60
2018-02-20T04:47:25.048Z,95.20
2018-02-20T04:48:25.008Z,93.90
2018-02-20T04:49:24.962Z,93.60
2018-02-20T04:50:24.922Z,93.30
2018-02-20T04:51:24.888Z,99.40
2018-02-20T04:52:24.834Z,92.40
2018-02-20T04:53:24.798Z,98.40
2018-02-20T04:54:24.758Z,106.70
2018-02-20T04:55:24.707Z,115.30
2018-02-20T04:56:24.705Z,128.40
2018-02-20T04:57:24.621Z,115.60
2018-02-20T04:58:24.577Z,88.80
2018-02-20T04:59:24.538Z,80.40
2018-02-20T05:00:24.497Z,85.50
2018-02-20T05:01:24.449Z,88.50
2018-02-20T05:02:24.408Z,83.40
2018-02-20T05:03:24.368Z,98.80
2018-02-20T05:04:24.328Z,97.60
2018-02-20T05:05:24.277Z,96.40
2018-02-20T05:06:24.237Z,105.30
2018-02-20T05:07:24.197Z,103.10
2018-02-20T05:08:24.189Z,108.40
2018-02-20T05:09:24.108Z,96.30
2018-02-20T05:10:24.073Z,92.80
2018-02-20T05:11:24.025Z,97.70
2018-02-20T05:12:23.985Z,100.60
2018-02-20T05:13:23.939Z,98.30
2018-02-20T05:14:23.898Z,97.40
2018-02-20T05:15:23.853Z,99.70
2018-02-20T05:16:23.815Z,94.60
2018-02-20T05:17:23.778Z,93.90
2018-02-20T05:18:23.734Z,94.50
2018-02-20T05:19:23.680Z,99.10
2018-02-20T05:20:23.652Z,109.30
2018-02-20T05:21:23.603Z,97.70
2018-02-20T05:22:23.562Z,108.90
2018-02-20T05:23:23.513Z,101.10
2018-02-20T05:24:23.478Z,114.20
2018-02-20T05:25:23.446Z,126.90
2018-02-20T05:26:23.387Z,119.50
2018-02-20T05:27:23.346Z,113.90
2018-02-20T05:28:23.298Z,97.40
2018-02-20T05:29:23.267Z,96.70
2018-02-20T05:30:23.229Z,107.10
2018-02-20T05:31:23.176Z,110.80
2018-02-20T05:32:23.131Z,105.80
2018-02-20T05:33:23.090Z,105.80
2018-02-20T05:34:23.052Z,111.00
2018-02-20T05:35:22.998Z,116.60
2018-02-20T05:36:22.968Z,111.20
2018-02-20T05:37:22.927Z,113.30
2018-02-20T05:38:22.873Z,112.50
2018-02-20T05:39:22.829Z,120.30
2018-02-20T05:40:22.787Z,121.00
2018-02-20T05:41:22.787Z,118.10
2018-02-20T05:42:22.701Z,111.80
2018-02-20T05:43:22.664Z,120.50
2018-02-20T05:44:22.614Z,117.60
2018-02-20T05:45:22.578Z,122.00
2018-02-20T05:46:22.532Z,119.10
2018-02-20T05:47:22.488Z,127.50
2018-02-20T05:48:22.446Z,126.80
2018-02-20T05:49:22.399Z,134.30
2018-02-20T05:50:22.362Z,136.70
2018-02-20T05:51:22.334Z,126.10
2018-02-20T05:52:22.272Z,131.90
2018-02-20T05:53:22.236Z,141.60
2018-02-20T05:54:22.188Z,135.10
2018-02-20T05:55:22.146Z,137.50
2018-02-20T05:56:22.100Z,138.00
2018-02-20T05:57:22.065Z,129.70
2018-02-20T05:58:22.018Z,125.20
2018-02-20T05:59:21.975Z,131.40
2018-02-20T06:00:21.931Z,117.90
2018-02-20T06:01:21.885Z,130.90
2018-02-20T06:02:21.846Z,125.00
2018-02-20T06:03:21.798Z,132.20
2018-02-20T06:04:21.760Z,144.50
2018-02-20T06:05:21.728Z,139.40
2018-02-20T06:06:21.670Z,148.40
2018-02-20T06:07:21.663Z,137.50
2018-02-20T06:08:21.583Z,145.60
2018-02-20T06:09:21.556Z,141.20
2018-02-20T06:10:21.510Z,146.40
2018-02-20T06:11:21.456Z,145.70
2018-02-20T06:12:21.411Z,134.10
2018-02-20T06:13:21.372Z,141.00
2018-02-20T06:14:21.336Z,137.00
2018-02-20T06:15:21.282Z,129.60
2018-02-20T06:16:21.243Z,134.60
2018-02-20T06:17:21.201Z,129.30
2018-02-20T06:18:21.155Z,135.10
2018-02-20T06:19:21.112Z,132.20
2018-02-20T06:20:21.068Z,129.20
2018-02-20T06:21:21.028Z,133.50
2018-02-20T06:22:20.991Z,137.80
2018-02-20T06:23:20.940Z,131.30
2018-02-20T06:24:20.896Z,134.60
2018-02-20T06:25:20.854Z,157.00
2018-02-20T06:26:20.810Z,154.20
2018-02-20T06:27:20.766Z,148.90
2018-02-20T06:28:20.723Z,158.80
2018-02-20T06:29:20.681Z,151.60
2018-02-20T06:30:20.637Z,160.60
2018-02-20T06:31:20.594Z,151.40
2018-02-20T06:32:20.555Z,150.80
2018-02-20T06:33:20.508Z,142.50
2018-02-20T06:34:20.466Z,136.80
2018-02-20T06:35:20.432Z,137.20
2018-02-20T06:36:20.379Z,134.50
2018-02-20T06:37:20.338Z,142.80
2018-02-20T06:38:20.294Z,137.10
2018-02-20T06:39:20.250Z,128.00
2018-02-20T06:40:20.206Z,128.70
2018-02-20T06:41:20.164Z,118.40
2018-02-20T06:42:20.126Z,123.30
2018-02-20T06:43:20.091Z,124.10
2018-02-20T06:44:20.057Z,127.70
2018-02-20T06:45:20.765Z,127.80
2018-02-20T06:46:19.949Z,118.30
2018-02-20T06:47:19.904Z,129.30
2018-02-20T06:48:19.864Z,121.70
2018-02-20T06:49:19.822Z,123.40
2018-02-20T06:50:19.776Z,116.80
2018-02-20T06:51:19.750Z,112.40
2018-02-20T06:52:19.691Z,117.80
2018-02-20T06:53:19.647Z,110.50
2018-02-20T06:54:19.603Z,114.60
2018-02-20T06:55:19.560Z,110.40
2018-02-20T06:56:19.523Z,116.60
2018-02-20T06:57:19.476Z,106.40
2018-02-20T06:58:19.433Z,110.10
2018-02-20T06:59:19.389Z,112.00
2018-02-20T07:00:19.349Z,104.80
2018-02-20T07:01:19.304Z,107.10
2018-02-20T07:02:19.267Z,107.90
2018-02-20T07:03:19.217Z,104.60
2018-02-20T07:04:19.180Z,97.20
2018-02-20T07:05:19.131Z,105.40
2018-02-20T07:06:19.094Z,105.00
2018-02-20T07:07:19.047Z,108.90
2018-02-20T07:08:19.001Z,102.90
2018-02-20T07:09:18.961Z,102.90
2018-02-20T07:10:18.918Z,98.70
2018-02-20T07:11:18.877Z,90.00
2018-02-20T07:12:18.833Z,94.10
2018-02-20T07:13:18.797Z,87.20
2018-02-20T07:14:18.754Z,81.20
2018-02-20T07:15:18.705Z,88.00
2018-02-20T07:16:18.665Z,87.10
2018-02-20T07:17:18.626Z,75.70
2018-02-20T07:18:18.583Z,84.40
2018-02-20T07:19:18.537Z,81.50
2018-02-20T07:20:18.498Z,83.30
2018-02-20T07:21:18.454Z,80.80
2018-02-20T07:22:18.414Z,83.80
2018-02-20T07:23:18.371Z,82.50
2018-02-20T07:24:18.330Z,86.10
2018-02-20T07:25:18.300Z,76.00
2018-02-20T07:26:18.251Z,72.00
2018-02-20T07:27:18.207Z,76.40
2018-02-20T07:28:18.165Z,77.30
2018-02-20T07:29:18.126Z,78.90
2018-02-20T07:30:18.086Z,73.20
2018-02-20T07:31:18.044Z,76.00
2018-02-20T07:32:18.002Z,75.10
2018-02-20T07:33:17.977Z,74.10
2018-02-20T07:34:17.920Z,75.90
2018-02-20T07:35:17.881Z,72.90
2018-02-20T07:36:17.842Z,70.00
2018-02-20T07:37:17.800Z,69.70
2018-02-20T07:38:17.758Z,71.70
2018-02-20T07:39:17.717Z,67.80
2018-02-20T07:40:17.680Z,79.50
2018-02-20T07:41:17.640Z,67.20
2018-02-20T07:42:17.597Z,67.70
2018-02-20T07:43:17.565Z,65.60
2018-02-20T07:44:17.519Z,61.20
2018-02-20T07:45:17.481Z,70.70
2018-02-20T07:46:17.439Z,66.80
2018-02-20T07:47:17.401Z,65.40
2018-02-20T07:48:17.360Z,69.40
2018-02-20T07:49:17.334Z,64.20
2018-02-20T07:50:17.285Z,68.60
2018-02-20T07:51:17.239Z,67.60
2018-02-20T07:52:17.200Z,71.90
2018-02-20T07:53:17.163Z,69.90
2018-02-20T07:54:17.125Z,70.20
2018-02-20T07:55:17.087Z,65.40
2018-02-20T07:56:17.043Z,69.70
2018-02-20T07:57:17.010Z,66.30
2018-02-20T07:58:16.994Z,69.70
2018-02-20T07:59:16.963Z,65.50
2018-02-20T08:00:16.891Z,64.00
2018-02-20T08:01:16.849Z,68.60
2018-02-20T08:02:16.813Z,61.30
2018-02-20T08:03:16.771Z,72.10
2018-02-20T08:04:16.737Z,66.70
2018-02-20T08:05:16.695Z,58.70
2018-02-20T08:06:16.666Z,65.50
2018-02-20T08:07:16.621Z,65.30
2018-02-20T08:08:16.584Z,63.20
2018-02-20T08:09:16.546Z,67.20
2018-02-20T08:10:16.509Z,65.50
2018-02-20T08:11:16.471Z,62.00
2018-02-20T08:12:16.435Z,62.50
2018-02-20T08:13:16.403Z,64.30
2018-02-20T08:14:16.363Z,63.40
2018-02-20T08:15:16.325Z,65.50
2018-02-20T08:16:16.287Z,59.00
2018-02-20T08:17:16.288Z,62.00
2018-02-20T08:18:16.216Z,61.90
2018-02-20T08:19:16.182Z,60.10
2018-02-20T08:20:16.144Z,58.50
2018-02-20T08:21:16.105Z,62.40
2018-02-20T08:22:16.074Z,68.50
2018-02-20T08:23:16.036Z,57.00
2018-02-20T08:24:16.001Z,64.40
2018-02-20T08:25:15.969Z,66.10
2018-02-20T08:26:15.933Z,60.70
2018-02-20T08:27:15.894Z,62.80
2018-02-20T08:28:15.861Z,62.90
2018-02-20T08:29:15.827Z,63.30
2018-02-20T08:30:15.797Z,62.50
2018-02-20T08:31:15.762Z,56.10
2018-02-20T08:32:15.726Z,56.80
2018-02-20T08:33:15.691Z,60.90
2018-02-20T08:34:15.662Z,62.00
2018-02-20T08:35:15.626Z,61.70
2018-02-20T08:36:15.594Z,58.50
2018-02-20T08:37:15.571Z,65.30
2018-02-20T08:38:15.527Z,61.00
2018-02-20T08:39:15.496Z,63.80
2018-02-20T08:40:15.459Z,62.00
2018-02-20T08:41:15.425Z,65.50
2018-02-20T08:42:15.396Z,64.60
2018-02-20T08:43:15.362Z,63.40
2018-02-20T08:44:15.336Z,66.40
2018-02-20T08:45:15.297Z,63.10
2018-02-20T08:46:15.265Z,58.30
2018-02-20T08:47:15.236Z,61.10
2018-02-20T08:48:15.201Z,62.90
2018-02-20T08:49:15.173Z,66.80
2018-02-20T08:50:15.138Z,62.30
2018-02-20T08:51:15.110Z,62.00
2018-02-20T08:52:15.089Z,59.30
2018-02-20T08:53:15.047Z,70.30
2018-02-20T08:54:15.018Z,67.60
2018-02-20T08:55:14.985Z,64.80
2018-02-20T08:56:14.953Z,64.20
2018-02-20T08:57:14.923Z,60.50
2018-02-20T08:58:14.894Z,60.70
2018-02-20T08:59:14.865Z,62.70
2018-02-20T09:00:14.828Z,57.30
2018-02-20T09:01:14.805Z,65.80
2018-02-20T09:02:14.771Z,63.00
2018-02-20T09:03:14.771Z,68.80
2018-02-20T09:04:14.712Z,60.00
2018-02-20T09:05:14.678Z,64.20
2018-02-20T09:06:14.648Z,65.80
2018-02-20T09:07:14.666Z,65.00
2018-02-20T09:08:14.588Z,62.90
2018-02-20T09:09:14.556Z,70.40
2018-02-20T09:10:14.527Z,63.60
2018-02-20T09:11:14.497Z,65.40
2018-02-20T09:12:14.473Z,64.00
2018-02-20T09:13:14.442Z,60.10
2018-02-20T09:14:14.407Z,63.90
2018-02-20T09:15:14.380Z,63.00
2018-02-20T09:16:14.379Z,67.40
2018-02-20T09:17:14.321Z,70.80
2018-02-20T09:18:14.292Z,64.30
2018-02-20T09:19:14.294Z,60.40
2018-02-20T09:20:14.233Z,67.40
2018-02-20T09:21:14.208Z,65.70
2018-02-20T09:22:14.183Z,70.60
2018-02-20T09:23:14.149Z,68.70
2018-02-20T09:24:14.123Z,70.40
2018-02-20T09:25:14.092Z,69.50
2018-02-20T09:26:14.068Z,66.20
2018-02-20T09:27:14.043Z,63.00
2018-02-20T09:28:14.011Z,62.30
2018-02-20T09:29:13.988Z,75.10
2018-02-20T09:30:13.955Z,75.50
2018-02-20T09:31:13.926Z,66.10
2018-02-20T09:32:13.906Z,69.30
2018-02-20T09:33:13.872Z,68.10
2018-02-20T09:34:13.849Z,67.70
2018-02-20T09:35:13.825Z,75.60
2018-02-20T09:36:13.794Z,69.60
2018-02-20T09:37:13.763Z,67.40
2018-02-20T09:38:13.741Z,71.40
2018-02-20T09:39:13.716Z,67.60
2018-02-20T09:40:13.683Z,66.90
2018-02-20T09:41:13.675Z,64.40
2018-02-20T09:42:13.632Z,73.00
2018-02-20T09:43:13.603Z,66.80
2018-02-20T09:44:13.583Z,70.50
2018-02-20T09:45:13.550Z,67.90
2018-02-20T09:46:13.528Z,70.30
2018-02-20T09:47:13.502Z,69.50
2018-02-20T09:48:13.472Z,72.80
2018-02-20T09:49:13.448Z,69.20
2018-02-20T09:50:13.422Z,71.30
2018-02-20T09:51:13.397Z,76.50
2018-02-20T09:52:13.389Z,65.80
2018-02-20T09:53:13.346Z,71.50
2018-02-20T09:54:13.320Z,64.90
2018-02-20T09:55:13.295Z,78.00
2018-02-20T09:56:13.271Z,68.50
2018-02-20T09:57:13.252Z,76.10
2018-02-20T09:58:13.221Z,70.90
2018-02-20T09:59:13.192Z,74.20
2018-02-20T10:00:13.170Z,67.10
2018-02-20T10:01:13.144Z,67.10
2018-02-20T10:02:13.128Z,72.40
2018-02-20T10:03:13.095Z,75.40
2018-02-20T10:04:13.069Z,76.70
2018-02-20T10:05:13.044Z,71.30
2018-02-20T10:06:13.022Z,76.80
2018-02-20T10:07:12.996Z,80.00
2018-02-20T10:08:12.970Z,65.90
2018-02-20T10:09:12.948Z,68.60
2018-02-20T10:10:12.922Z,65.50
2018-02-20T10:11:12.900Z,69.70
2018-02-20T10:12:12.880Z,68.90
2018-02-20T10:13:12.850Z,68.10
2018-02-20T10:14:12.827Z,61.70
2018-02-20T10:15:12.802Z,69.00
2018-02-20T10:16:12.780Z,63.70
2018-02-20T10:17:12.762Z,68.80
2018-02-20T10:18:12.731Z,65.70
2018-02-20T10:19:12.711Z,67.00
2018-02-20T10:20:12.686Z,69.00
2018-02-20T10:21:12.664Z,61.70
2018-02-20T10:22:12.638Z,64.00
2018-02-20T10:23:12.617Z,62.40
2018-02-20T10:24:12.591Z,67.30
2018-02-20T10:25:12.567Z,68.40
2018-02-20T10:26:12.546Z,63.90
2018-02-20T10:27:12.522Z,70.50
2018-02-20T10:28:12.496Z,65.00
2018-02-20T10:29:12.473Z,66.80
2018-02-20T10:30:12.453Z,65.00
2018-02-20T10:31:12.430Z,61.70
2018-02-20T10:32:12.405Z,69.00
2018-02-20T10:33:12.385Z,79.00
2018-02-20T10:34:12.366Z,71.70
2018-02-20T10:35:12.338Z,65.00
2018-02-20T10:36:12.315Z,67.70
2018-02-20T10:37:12.289Z,72.60
2018-02-20T10:38:12.274Z,66.50
2018-02-20T10:39:12.243Z,69.50
2018-02-20T10:40:12.226Z,71.00
2018-02-20T10:41:12.199Z,62.70
2018-02-20T10:42:12.186Z,65.60
2018-02-20T10:43:12.156Z,67.80
2018-02-20T10:44:12.130Z,63.60
2018-02-20T10:45:12.110Z,71.70
2018-02-20T10:46:12.092Z,66.60
2018-02-20T10:47:12.065Z,67.60
2018-02-20T10:48:12.044Z,68.50
2018-02-20T10:49:12.021Z,69.10
2018-02-20T10:50:12.002Z,70.90
2018-02-20T10:51:11.987Z,68.50
2018-02-20T10:52:11.954Z,71.40
2018-02-20T10:53:11.934Z,73.80
2018-02-20T10:54:11.911Z,70.20
2018-02-20T10:55:11.890Z,69.10
2018-02-20T10:56:11.873Z,63.80
2018-02-20T10:57:11.846Z,71.40
2018-02-20T10:58:11.822Z,64.70
2018-02-20T10:59:11.800Z,74.90
2018-02-20T11:00:11.784Z,71.90
2018-02-20T11:01:11.757Z,66.70
2018-02-20T11:02:11.737Z,69.50
2018-02-20T11:03:11.713Z,74.60
2018-02-20T11:04:11.700Z,69.30
2018-02-20T11:05:11.671Z,73.00
2018-02-20T11:06:11.648Z,74.10
2018-02-20T11:07:11.626Z,69.70
2018-02-20T11:08:11.603Z,71.90
2018-02-20T11:09:11.583Z,77.70
2018-02-20T11:10:11.562Z,74.90
2018-02-20T11:11:11.555Z,69.00
2018-02-20T11:12:11.519Z,70.80
2018-02-20T11:13:11.538Z,68.90
2018-02-20T11:14:11.474Z,77.80
2018-02-20T11:15:11.448Z,75.70
2018-02-20T11:16:11.435Z,75.00
2018-02-20T11:17:11.409Z,74.10
2018-02-20T11:18:11.387Z,80.80
2018-02-20T11:19:11.368Z,76.40
2018-02-20T11:20:11.352Z,73.50
2018-02-20T11:21:11.323Z,70.80
2018-02-20T11:22:11.301Z,74.90
2018-02-20T11:23:11.279Z,67.90
2018-02-20T11:24:11.259Z,75.40
2018-02-20T11:25:11.236Z,71.80
2018-02-20T11:26:11.216Z,68.30
2018-02-20T11:27:11.191Z,69.50
2018-02-20T11:28:11.171Z,78.40
2018-02-20T11:29:11.151Z,71.40
2018-02-20T11:30:11.127Z,71.90
2018-02-20T11:31:11.103Z,73.80
2018-02-20T11:32:11.081Z,70.10
2018-02-20T11:33:11.067Z,71.10
2018-02-20T11:34:11.039Z,70.80
2018-02-20T11:35:11.017Z,71.60
2018-02-20T11:36:11.005Z,71.80
2018-02-20T11:37:10.976Z,69.30
2018-02-20T11:38:10.955Z,76.60
2018-02-20T11:39:10.932Z,78.00
2018-02-20T11:40:10.910Z,73.20
2018-02-20T11:41:10.892Z,74.20
2018-02-20T11:42:10.882Z,73.70
2018-02-20T11:43:10.852Z,80.70
2018-02-20T11:44:10.826Z,74.50
2018-02-20T11:45:10.805Z,72.70
2018-02-20T11:46:10.787Z,71.40
2018-02-20T11:47:10.761Z,70.30
2018-02-20T11:48:10.740Z,82.60
2018-02-20T11:49:10.727Z,77.90
2018-02-20T11:50:10.698Z,79.30
2018-02-20T11:51:10.675Z,74.00
2018-02-20T11:52:10.654Z,72.30
2018-02-20T11:53:10.635Z,80.20
2018-02-20T11:54:10.613Z,81.40
2018-02-20T11:55:10.592Z,75.50
2018-02-20T11:56:10.574Z,75.50
2018-02-20T11:57:10.552Z,73.90
2018-02-20T11:58:10.527Z,71.30
2018-02-20T11:59:10.506Z,71.20
2018-02-20T12:00:10.483Z,72.50
2018-02-20T12:01:10.463Z,80.10
2018-02-20T12:02:10.441Z,77.00
2018-02-20T12:03:10.425Z,76.50
2018-02-20T12:04:10.399Z,72.70
2018-02-20T12:05:10.378Z,76.90
2018-02-20T12:06:10.353Z,78.90
2018-02-20T12:07:10.332Z,77.20
2018-02-20T12:08:10.364Z,84.90
2018-02-20T12:09:10.293Z,77.10
2018-02-20T12:10:10.271Z,74.70
2018-02-20T12:11:10.252Z,71.40
2018-02-20T12:12:10.226Z,73.90
2018-02-20T12:13:10.205Z,82.20
2018-02-20T12:14:10.184Z,78.50
2018-02-20T12:15:10.157Z,73.10
2018-02-20T12:16:10.144Z,83.70
2018-02-20T12:17:10.118Z,75.40
2018-02-20T12:18:10.095Z,81.10
2018-02-20T12:19:10.076Z,75.60
2018-02-20T12:20:10.054Z,75.70
2018-02-20T12:21:10.031Z,80.30
2018-02-20T12:22:10.006Z,75.30
2018-02-20T12:23:09.995Z,75.10
2018-02-20T12:24:09.961Z,73.40
2018-02-20T12:25:09.944Z,77.40
2018-02-20T12:26:09.922Z,79.20
2018-02-20T12:27:09.897Z,78.50
2018-02-20T12:28:09.876Z,79.90
2018-02-20T12:29:09.851Z,83.90
2018-02-20T12:30:09.840Z,78.40
2018-02-20T12:31:09.806Z,84.60
2018-02-20T12:32:09.783Z,94.90
2018-02-20T12:33:09.758Z,84.70
2018-02-20T12:34:09.734Z,86.60
2018-02-20T12:35:09.709Z,85.90
2018-02-20T12:36:09.687Z,82.70
2018-02-20T12:37:09.661Z,83.30
2018-02-20T12:38:09.637Z,87.60
2018-02-20T12:39:09.612Z,89.60
2018-02-20T12:40:09.583Z,90.70
2018-02-20T12:41:09.561Z,87.50
2018-02-20T12:42:09.532Z,89.60
2018-02-20T12:43:09.503Z,88.90
2018-02-20T12:44:09.478Z,85.10
2018-02-20T12:45:09.453Z,86.80
2018-02-20T12:46:09.430Z,85.70